sensor_id;sensor_type;location;lat;lon;timestamp;P1;durP1;ratioP1;P2;durP2;ratioP2
18526;SDS011;9393;42.158;24.748;2023-02-22T00:01:45;5.17;;;2.10;;
18526;SDS011;9393;42.158;24.748;2023-02-22T00:04:52;3.10;;;1.90;;
18526;SDS011;9393;42.158;24.748;2023-02-22T00:07:56;3.40;;;2.17;;
18526;SDS011;9393;42.158;24.748;2023-02-22T00:11:02;5.50;;;2.20;;
18526;SDS011;9393;42.158;24.748;2023-02-22T00:14:11;2.80;;;2.00;;
18526;SDS011;9393;42.158;24.748;2023-02-22T00:17:14;4.60;;;2.10;;
18526;SDS011;9393;42.158;24.748;2023-02-22T00:20:18;4.33;;;2.00;;
18526;SDS011;9393;42.158;24.748;2023-02-22T00:23:24;4.80;;;2.40;;
18526;SDS011;9393;42.158;24.748;2023-02-22T00:26:31;4.73;;;2.10;;
18526;SDS011;9393;42.158;24.748;2023-02-22T00:29:37;5.50;;;1.93;;
18526;SDS011;9393;42.158;24.748;2023-02-22T00:32:41;2.67;;;1.43;;
18526;SDS011;9393;42.158;24.748;2023-02-22T00:35:46;3.03;;;2.00;;
18526;SDS011;9393;42.158;24.748;2023-02-22T00:38:51;4.27;;;1.73;;
18526;SDS011;9393;42.158;24.748;2023-02-22T00:41:54;4.40;;;2.27;;
18526;SDS011;9393;42.158;24.748;2023-02-22T00:45:00;3.67;;;2.10;;
18526;SDS011;9393;42.158;24.748;2023-02-22T00:48:04;4.07;;;2.27;;
18526;SDS011;9393;42.158;24.748;2023-02-22T00:51:09;4.40;;;2.70;;
18526;SDS011;9393;42.158;24.748;2023-02-22T00:54:13;6.57;;;2.13;;
18526;SDS011;9393;42.158;24.748;2023-02-22T00:57:19;3.37;;;2.23;;
18526;SDS011;9393;42.158;24.748;2023-02-22T01:00:25;4.10;;;2.40;;
18526;SDS011;9393;42.158;24.748;2023-02-22T01:03:31;4.13;;;2.27;;
18526;SDS011;9393;42.158;24.748;2023-02-22T01:06:36;6.73;;;2.57;;
18526;SDS011;9393;42.158;24.748;2023-02-22T01:09:40;3.37;;;2.33;;
18526;SDS011;9393;42.158;24.748;2023-02-22T01:12:45;6.13;;;2.57;;
18526;SDS011;9393;42.158;24.748;2023-02-22T01:15:51;4.80;;;2.63;;
18526;SDS011;9393;42.158;24.748;2023-02-22T01:18:57;3.13;;;2.40;;
18526;SDS011;9393;42.158;24.748;2023-02-22T01:22:02;4.23;;;2.70;;
18526;SDS011;9393;42.158;24.748;2023-02-22T01:25:07;4.20;;;2.50;;
18526;SDS011;9393;42.158;24.748;2023-02-22T01:28:11;3.37;;;2.17;;
18526;SDS011;9393;42.158;24.748;2023-02-22T01:31:17;4.57;;;2.57;;
18526;SDS011;9393;42.158;24.748;2023-02-22T01:34:22;4.30;;;2.60;;
18526;SDS011;9393;42.158;24.748;2023-02-22T01:37:26;3.77;;;2.30;;
18526;SDS011;9393;42.158;24.748;2023-02-22T01:40:31;4.67;;;2.77;;
18526;SDS011;9393;42.158;24.748;2023-02-22T01:43:37;4.87;;;2.47;;
18526;SDS011;9393;42.158;24.748;2023-02-22T01:46:42;4.30;;;2.67;;
18526;SDS011;9393;42.158;24.748;2023-02-22T01:49:46;5.20;;;2.30;;
18526;SDS011;9393;42.158;24.748;2023-02-22T01:52:52;5.73;;;2.40;;
18526;SDS011;9393;42.158;24.748;2023-02-22T01:55:56;9.00;;;2.83;;
18526;SDS011;9393;42.158;24.748;2023-02-22T01:59:02;3.07;;;2.30;;
18526;SDS011;9393;42.158;24.748;2023-02-22T02:02:10;4.17;;;2.43;;
18526;SDS011;9393;42.158;24.748;2023-02-22T02:05:15;3.63;;;2.80;;
18526;SDS011;9393;42.158;24.748;2023-02-22T02:08:22;7.03;;;2.80;;
18526;SDS011;9393;42.158;24.748;2023-02-22T02:11:32;4.03;;;2.60;;
18526;SDS011;9393;42.158;24.748;2023-02-22T02:14:36;8.23;;;2.80;;
18526;SDS011;9393;42.158;24.748;2023-02-22T02:17:42;4.17;;;2.10;;
18526;SDS011;9393;42.158;24.748;2023-02-22T02:20:49;3.83;;;2.33;;
18526;SDS011;9393;42.158;24.748;2023-02-22T02:24:26;5.43;;;3.17;;
18526;SDS011;9393;42.158;24.748;2023-02-22T02:28:04;3.37;;;2.60;;
18526;SDS011;9393;42.158;24.748;2023-02-22T02:35:16;4.63;;;2.70;;
18526;SDS011;9393;42.158;24.748;2023-02-22T02:38:28;5.47;;;2.63;;
18526;SDS011;9393;42.158;24.748;2023-02-22T02:41:38;4.03;;;2.47;;
18526;SDS011;9393;42.158;24.748;2023-02-22T02:44:47;3.33;;;2.67;;
18526;SDS011;9393;42.158;24.748;2023-02-22T02:47:59;5.70;;;2.80;;
18526;SDS011;9393;42.158;24.748;2023-02-22T02:51:09;5.40;;;2.87;;
18526;SDS011;9393;42.158;24.748;2023-02-22T02:54:16;7.43;;;3.40;;
18526;SDS011;9393;42.158;24.748;2023-02-22T02:57:25;7.67;;;2.77;;
18526;SDS011;9393;42.158;24.748;2023-02-22T03:00:30;6.70;;;3.47;;
18526;SDS011;9393;42.158;24.748;2023-02-22T03:03:45;7.53;;;3.97;;
18526;SDS011;9393;42.158;24.748;2023-02-22T03:07:04;8.37;;;3.77;;
18526;SDS011;9393;42.158;24.748;2023-02-22T03:10:24;5.20;;;3.43;;
18526;SDS011;9393;42.158;24.748;2023-02-22T03:13:45;8.53;;;4.00;;
18526;SDS011;9393;42.158;24.748;2023-02-22T03:16:58;7.93;;;3.60;;
18526;SDS011;9393;42.158;24.748;2023-02-22T03:20:14;8.30;;;3.43;;
18526;SDS011;9393;42.158;24.748;2023-02-22T03:23:27;8.23;;;4.00;;
18526;SDS011;9393;42.158;24.748;2023-02-22T03:26:37;6.37;;;4.00;;
18526;SDS011;9393;42.158;24.748;2023-02-22T03:29:44;8.13;;;5.33;;
18526;SDS011;9393;42.158;24.748;2023-02-22T03:32:49;5.93;;;4.20;;
18526;SDS011;9393;42.158;24.748;2023-02-22T03:35:59;6.60;;;4.20;;
18526;SDS011;9393;42.158;24.748;2023-02-22T03:39:11;8.80;;;3.70;;
18526;SDS011;9393;42.158;24.748;2023-02-22T03:42:20;6.70;;;3.47;;
18526;SDS011;9393;42.158;24.748;2023-02-22T03:45:28;6.97;;;3.60;;
18526;SDS011;9393;42.158;24.748;2023-02-22T03:48:37;7.60;;;3.57;;
18526;SDS011;9393;42.158;24.748;2023-02-22T03:51:46;5.90;;;3.30;;
18526;SDS011;9393;42.158;24.748;2023-02-22T03:54:52;7.00;;;3.90;;
18526;SDS011;9393;42.158;24.748;2023-02-22T03:57:57;6.20;;;3.37;;
18526;SDS011;9393;42.158;24.748;2023-02-22T04:01:04;6.30;;;3.77;;
18526;SDS011;9393;42.158;24.748;2023-02-22T04:04:09;5.07;;;3.27;;
18526;SDS011;9393;42.158;24.748;2023-02-22T04:07:13;6.53;;;3.20;;
18526;SDS011;9393;42.158;24.748;2023-02-22T04:10:18;7.20;;;3.80;;
18526;SDS011;9393;42.158;24.748;2023-02-22T04:13:23;7.20;;;3.77;;
18526;SDS011;9393;42.158;24.748;2023-02-22T04:16:29;5.13;;;2.93;;
18526;SDS011;9393;42.158;24.748;2023-02-22T04:19:33;5.23;;;2.83;;
18526;SDS011;9393;42.158;24.748;2023-02-22T04:22:38;7.10;;;3.20;;
18526;SDS011;9393;42.158;24.748;2023-02-22T04:25:44;6.30;;;3.03;;
18526;SDS011;9393;42.158;24.748;2023-02-22T04:28:50;7.00;;;3.13;;
18526;SDS011;9393;42.158;24.748;2023-02-22T04:31:57;5.47;;;3.20;;
18526;SDS011;9393;42.158;24.748;2023-02-22T04:35:01;6.53;;;3.67;;
18526;SDS011;9393;42.158;24.748;2023-02-22T04:38:05;9.13;;;3.80;;
18526;SDS011;9393;42.158;24.748;2023-02-22T04:41:15;8.17;;;3.60;;
18526;SDS011;9393;42.158;24.748;2023-02-22T04:44:20;4.90;;;2.90;;
18526;SDS011;9393;42.158;24.748;2023-02-22T04:47:24;6.63;;;3.40;;
18526;SDS011;9393;42.158;24.748;2023-02-22T04:50:28;7.93;;;2.83;;
18526;SDS011;9393;42.158;24.748;2023-02-22T04:53:32;4.80;;;2.47;;
18526;SDS011;9393;42.158;24.748;2023-02-22T04:56:38;3.93;;;2.63;;
18526;SDS011;9393;42.158;24.748;2023-02-22T04:59:41;6.20;;;2.77;;
18526;SDS011;9393;42.158;24.748;2023-02-22T05:02:46;6.40;;;2.77;;
18526;SDS011;9393;42.158;24.748;2023-02-22T05:05:50;7.07;;;3.13;;
18526;SDS011;9393;42.158;24.748;2023-02-22T05:08:54;5.63;;;2.83;;
18526;SDS011;9393;42.158;24.748;2023-02-22T05:12:00;5.43;;;2.50;;
18526;SDS011;9393;42.158;24.748;2023-02-22T05:15:04;10.97;;;3.27;;
18526;SDS011;9393;42.158;24.748;2023-02-22T05:18:09;9.23;;;2.60;;
18526;SDS011;9393;42.158;24.748;2023-02-22T05:21:13;3.90;;;2.40;;
18526;SDS011;9393;42.158;24.748;2023-02-22T05:24:17;6.53;;;3.03;;
18526;SDS011;9393;42.158;24.748;2023-02-22T05:27:23;4.40;;;2.50;;
18526;SDS011;9393;42.158;24.748;2023-02-22T05:30:28;6.07;;;2.30;;
18526;SDS011;9393;42.158;24.748;2023-02-22T05:33:33;6.00;;;2.40;;
18526;SDS011;9393;42.158;24.748;2023-02-22T05:36:37;4.77;;;2.50;;
18526;SDS011;9393;42.158;24.748;2023-02-22T05:39:41;8.43;;;2.67;;
18526;SDS011;9393;42.158;24.748;2023-02-22T05:42:49;6.73;;;2.83;;
18526;SDS011;9393;42.158;24.748;2023-02-22T05:45:53;6.07;;;2.83;;
18526;SDS011;9393;42.158;24.748;2023-02-22T05:48:57;6.13;;;2.93;;
18526;SDS011;9393;42.158;24.748;2023-02-22T05:52:01;5.80;;;3.17;;
18526;SDS011;9393;42.158;24.748;2023-02-22T05:55:05;4.93;;;2.70;;
18526;SDS011;9393;42.158;24.748;2023-02-22T05:58:11;3.80;;;2.10;;
18526;SDS011;9393;42.158;24.748;2023-02-22T06:01:16;4.30;;;2.07;;
18526;SDS011;9393;42.158;24.748;2023-02-22T06:04:20;5.87;;;1.40;;
18526;SDS011;9393;42.158;24.748;2023-02-22T06:07:24;6.77;;;2.10;;
18526;SDS011;9393;42.158;24.748;2023-02-22T06:10:28;3.97;;;1.90;;
18526;SDS011;9393;42.158;24.748;2023-02-22T06:13:34;6.10;;;2.30;;
18526;SDS011;9393;42.158;24.748;2023-02-22T06:16:37;6.03;;;2.27;;
18526;SDS011;9393;42.158;24.748;2023-02-22T06:19:41;5.40;;;2.20;;
18526;SDS011;9393;42.158;24.748;2023-02-22T06:22:46;4.40;;;2.30;;
18526;SDS011;9393;42.158;24.748;2023-02-22T06:25:50;6.77;;;2.50;;
18526;SDS011;9393;42.158;24.748;2023-02-22T06:28:55;10.33;;;2.50;;
18526;SDS011;9393;42.158;24.748;2023-02-22T06:31:59;8.17;;;2.20;;
18526;SDS011;9393;42.158;24.748;2023-02-22T06:35:03;7.70;;;2.13;;
18526;SDS011;9393;42.158;24.748;2023-02-22T06:38:08;10.77;;;2.40;;
18526;SDS011;9393;42.158;24.748;2023-02-22T06:41:11;5.93;;;2.33;;
18526;SDS011;9393;42.158;24.748;2023-02-22T06:44:18;6.30;;;2.20;;
18526;SDS011;9393;42.158;24.748;2023-02-22T06:47:22;7.27;;;2.60;;
18526;SDS011;9393;42.158;24.748;2023-02-22T06:50:27;3.37;;;1.90;;
18526;SDS011;9393;42.158;24.748;2023-02-22T06:53:32;5.77;;;2.23;;
18526;SDS011;9393;42.158;24.748;2023-02-22T06:56:36;7.70;;;3.37;;
18526;SDS011;9393;42.158;24.748;2023-02-22T06:59:41;8.47;;;3.20;;
18526;SDS011;9393;42.158;24.748;2023-02-22T07:02:45;7.17;;;2.90;;
18526;SDS011;9393;42.158;24.748;2023-02-22T07:05:50;5.47;;;2.27;;
18526;SDS011;9393;42.158;24.748;2023-02-22T07:08:54;7.27;;;2.70;;
18526;SDS011;9393;42.158;24.748;2023-02-22T07:11:58;3.93;;;1.80;;
18526;SDS011;9393;42.158;24.748;2023-02-22T07:15:04;9.90;;;4.07;;
18526;SDS011;9393;42.158;24.748;2023-02-22T07:18:08;10.83;;;2.23;;
18526;SDS011;9393;42.158;24.748;2023-02-22T07:21:13;6.93;;;2.13;;
18526;SDS011;9393;42.158;24.748;2023-02-22T07:24:17;5.10;;;2.20;;
18526;SDS011;9393;42.158;24.748;2023-02-22T07:27:21;10.43;;;3.70;;
18526;SDS011;9393;42.158;24.748;2023-02-22T07:30:27;6.57;;;2.53;;
18526;SDS011;9393;42.158;24.748;2023-02-22T07:33:33;9.40;;;2.60;;
18526;SDS011;9393;42.158;24.748;2023-02-22T07:36:37;6.80;;;2.30;;
18526;SDS011;9393;42.158;24.748;2023-02-22T07:39:41;7.53;;;2.17;;
18526;SDS011;9393;42.158;24.748;2023-02-22T07:42:52;6.17;;;2.10;;
18526;SDS011;9393;42.158;24.748;2023-02-22T07:45:59;5.30;;;2.00;;
18526;SDS011;9393;42.158;24.748;2023-02-22T07:49:04;3.83;;;2.33;;
18526;SDS011;9393;42.158;24.748;2023-02-22T07:52:08;4.23;;;1.80;;
18526;SDS011;9393;42.158;24.748;2023-02-22T07:55:13;7.43;;;2.50;;
18526;SDS011;9393;42.158;24.748;2023-02-22T07:58:21;5.10;;;2.03;;
18526;SDS011;9393;42.158;24.748;2023-02-22T08:01:27;7.93;;;2.40;;
18526;SDS011;9393;42.158;24.748;2023-02-22T08:04:32;9.70;;;2.23;;
18526;SDS011;9393;42.158;24.748;2023-02-22T08:07:36;6.73;;;2.43;;
18526;SDS011;9393;42.158;24.748;2023-02-22T08:10:40;5.23;;;1.93;;
18526;SDS011;9393;42.158;24.748;2023-02-22T08:13:46;4.43;;;1.90;;
18526;SDS011;9393;42.158;24.748;2023-02-22T08:16:51;3.53;;;1.93;;
18526;SDS011;9393;42.158;24.748;2023-02-22T08:19:55;3.33;;;1.83;;
18526;SDS011;9393;42.158;24.748;2023-02-22T08:22:59;3.60;;;1.57;;
18526;SDS011;9393;42.158;24.748;2023-02-22T08:26:05;3.67;;;1.80;;
18526;SDS011;9393;42.158;24.748;2023-02-22T08:29:11;7.27;;;1.60;;
18526;SDS011;9393;42.158;24.748;2023-02-22T08:32:17;7.10;;;2.00;;
18526;SDS011;9393;42.158;24.748;2023-02-22T08:35:21;4.87;;;1.90;;
18526;SDS011;9393;42.158;24.748;2023-02-22T08:38:27;3.90;;;1.57;;
18526;SDS011;9393;42.158;24.748;2023-02-22T08:41:32;7.37;;;1.50;;
18526;SDS011;9393;42.158;24.748;2023-02-22T08:44:37;9.43;;;2.00;;
18526;SDS011;9393;42.158;24.748;2023-02-22T08:47:43;6.13;;;1.40;;
18526;SDS011;9393;42.158;24.748;2023-02-22T08:50:48;9.20;;;1.93;;
18526;SDS011;9393;42.158;24.748;2023-02-22T08:53:52;6.30;;;1.70;;
18526;SDS011;9393;42.158;24.748;2023-02-22T08:56:56;5.20;;;1.80;;
18526;SDS011;9393;42.158;24.748;2023-02-22T09:00:00;1.83;;;1.30;;
18526;SDS011;9393;42.158;24.748;2023-02-22T09:03:07;2.83;;;1.43;;
18526;SDS011;9393;42.158;24.748;2023-02-22T09:06:14;11.40;;;2.27;;
18526;SDS011;9393;42.158;24.748;2023-02-22T09:09:18;5.83;;;1.63;;
18526;SDS011;9393;42.158;24.748;2023-02-22T09:12:22;3.47;;;1.60;;
18526;SDS011;9393;42.158;24.748;2023-02-22T09:15:26;4.13;;;1.67;;
18526;SDS011;9393;42.158;24.748;2023-02-22T09:18:32;4.30;;;1.80;;
18526;SDS011;9393;42.158;24.748;2023-02-22T09:21:45;3.73;;;1.63;;
18526;SDS011;9393;42.158;24.748;2023-02-22T09:24:55;4.27;;;1.70;;
18526;SDS011;9393;42.158;24.748;2023-02-22T09:28:03;5.67;;;2.00;;
18526;SDS011;9393;42.158;24.748;2023-02-22T09:31:07;5.97;;;1.77;;
18526;SDS011;9393;42.158;24.748;2023-02-22T09:34:13;2.83;;;1.43;;
18526;SDS011;9393;42.158;24.748;2023-02-22T09:37:18;4.10;;;1.60;;
18526;SDS011;9393;42.158;24.748;2023-02-22T09:40:22;2.92;;;1.85;;
18526;SDS011;9393;42.158;24.748;2023-02-22T09:43:33;9.40;;;2.05;;
18526;SDS011;9393;42.158;24.748;2023-02-22T09:46:43;3.22;;;1.67;;
18526;SDS011;9393;42.158;24.748;2023-02-22T09:49:56;3.90;;;1.58;;
18526;SDS011;9393;42.158;24.748;2023-02-22T09:53:04;2.20;;;1.58;;
18526;SDS011;9393;42.158;24.748;2023-02-22T09:56:10;1.98;;;1.50;;
18526;SDS011;9393;42.158;24.748;2023-02-22T09:59:21;2.78;;;1.70;;
18526;SDS011;9393;42.158;24.748;2023-02-22T10:02:30;4.90;;;1.60;;
18526;SDS011;9393;42.158;24.748;2023-02-22T10:05:39;3.80;;;1.27;;
18526;SDS011;9393;42.158;24.748;2023-02-22T10:08:47;2.15;;;1.40;;
18526;SDS011;9393;42.158;24.748;2023-02-22T10:11:56;2.40;;;1.40;;
18526;SDS011;9393;42.158;24.748;2023-02-22T10:19:04;4.50;;;1.40;;
18526;SDS011;9393;42.158;24.748;2023-02-22T10:22:27;3.63;;;1.35;;
18526;SDS011;9393;42.158;24.748;2023-02-22T10:25:44;3.83;;;1.65;;
18526;SDS011;9393;42.158;24.748;2023-02-22T10:28:55;2.00;;;1.60;;
18526;SDS011;9393;42.158;24.748;2023-02-22T10:32:03;3.35;;;1.67;;
18526;SDS011;9393;42.158;24.748;2023-02-22T10:35:12;3.20;;;1.58;;
18526;SDS011;9393;42.158;24.748;2023-02-22T10:38:25;3.60;;;1.52;;
18526;SDS011;9393;42.158;24.748;2023-02-22T10:41:31;3.08;;;1.42;;
18526;SDS011;9393;42.158;24.748;2023-02-22T10:44:38;3.83;;;1.67;;
18526;SDS011;9393;42.158;24.748;2023-02-22T10:47:43;1.50;;;1.40;;
18526;SDS011;9393;42.158;24.748;2023-02-22T10:50:47;3.25;;;1.40;;
18526;SDS011;9393;42.158;24.748;2023-02-22T10:53:57;5.13;;;2.00;;
18526;SDS011;9393;42.158;24.748;2023-02-22T10:57:09;4.63;;;1.75;;
18526;SDS011;9393;42.158;24.748;2023-02-22T11:00:18;6.72;;;2.03;;
18526;SDS011;9393;42.158;24.748;2023-02-22T11:03:27;3.97;;;1.80;;
18526;SDS011;9393;42.158;24.748;2023-02-22T11:06:31;3.25;;;1.52;;
18526;SDS011;9393;42.158;24.748;2023-02-22T11:09:48;3.25;;;1.80;;
18526;SDS011;9393;42.158;24.748;2023-02-22T11:12:54;3.17;;;1.73;;
18526;SDS011;9393;42.158;24.748;2023-02-22T11:15:58;6.10;;;1.88;;
18526;SDS011;9393;42.158;24.748;2023-02-22T11:19:08;6.03;;;1.92;;
18526;SDS011;9393;42.158;24.748;2023-02-22T11:22:20;3.88;;;1.52;;
18526;SDS011;9393;42.158;24.748;2023-02-22T11:25:29;3.08;;;1.73;;
18526;SDS011;9393;42.158;24.748;2023-02-22T11:28:35;3.35;;;1.70;;
18526;SDS011;9393;42.158;24.748;2023-02-22T11:31:50;2.42;;;1.40;;
18526;SDS011;9393;42.158;24.748;2023-02-22T11:34:55;2.28;;;1.38;;
18526;SDS011;9393;42.158;24.748;2023-02-22T11:38:22;1.88;;;1.50;;
18526;SDS011;9393;42.158;24.748;2023-02-22T11:41:29;1.70;;;1.40;;
18526;SDS011;9393;42.158;24.748;2023-02-22T11:44:36;1.80;;;1.10;;
18526;SDS011;9393;42.158;24.748;2023-02-22T11:47:49;1.92;;;1.20;;
18526;SDS011;9393;42.158;24.748;2023-02-22T11:50:57;2.20;;;1.35;;
18526;SDS011;9393;42.158;24.748;2023-02-22T11:54:21;2.83;;;1.50;;
18526;SDS011;9393;42.158;24.748;2023-02-22T11:57:39;3.10;;;1.20;;
18526;SDS011;9393;42.158;24.748;2023-02-22T12:00:51;7.03;;;1.98;;
18526;SDS011;9393;42.158;24.748;2023-02-22T12:04:20;4.18;;;1.42;;
18526;SDS011;9393;42.158;24.748;2023-02-22T12:07:40;3.88;;;1.60;;
18526;SDS011;9393;42.158;24.748;2023-02-22T12:10:56;5.97;;;1.55;;
18526;SDS011;9393;42.158;24.748;2023-02-22T12:14:11;3.75;;;1.13;;
18526;SDS011;9393;42.158;24.748;2023-02-22T12:17:25;2.45;;;1.40;;
18526;SDS011;9393;42.158;24.748;2023-02-22T12:20:43;4.95;;;1.60;;
18526;SDS011;9393;42.158;24.748;2023-02-22T12:23:50;2.15;;;1.38;;
18526;SDS011;9393;42.158;24.748;2023-02-22T12:27:03;2.50;;;1.70;;
18526;SDS011;9393;42.158;24.748;2023-02-22T12:30:14;5.10;;;1.60;;
18526;SDS011;9393;42.158;24.748;2023-02-22T12:33:25;4.78;;;1.50;;
18526;SDS011;9393;42.158;24.748;2023-02-22T12:36:34;4.55;;;1.83;;
18526;SDS011;9393;42.158;24.748;2023-02-22T12:39:55;1.38;;;1.23;;
18526;SDS011;9393;42.158;24.748;2023-02-22T12:43:11;3.60;;;1.58;;
18526;SDS011;9393;42.158;24.748;2023-02-22T12:46:23;1.92;;;1.40;;
18526;SDS011;9393;42.158;24.748;2023-02-22T12:49:33;2.15;;;1.55;;
18526;SDS011;9393;42.158;24.748;2023-02-22T12:52:43;2.05;;;1.40;;
18526;SDS011;9393;42.158;24.748;2023-02-22T12:55:53;2.58;;;1.17;;
18526;SDS011;9393;42.158;24.748;2023-02-22T12:59:04;2.20;;;1.52;;
18526;SDS011;9393;42.158;24.748;2023-02-22T13:02:17;4.82;;;2.13;;
18526;SDS011;9393;42.158;24.748;2023-02-22T13:05:24;3.85;;;1.65;;
18526;SDS011;9393;42.158;24.748;2023-02-22T13:08:30;2.15;;;1.30;;
18526;SDS011;9393;42.158;24.748;2023-02-22T13:11:41;3.40;;;1.50;;
18526;SDS011;9393;42.158;24.748;2023-02-22T13:14:56;1.90;;;1.50;;
18526;SDS011;9393;42.158;24.748;2023-02-22T13:18:13;2.28;;;1.48;;
18526;SDS011;9393;42.158;24.748;2023-02-22T13:21:26;1.92;;;1.30;;
18526;SDS011;9393;42.158;24.748;2023-02-22T13:24:35;5.00;;;1.95;;
18526;SDS011;9393;42.158;24.748;2023-02-22T13:27:57;1.85;;;1.38;;
18526;SDS011;9393;42.158;24.748;2023-02-22T13:31:18;1.77;;;1.20;;
18526;SDS011;9393;42.158;24.748;2023-02-22T13:34:42;3.47;;;1.55;;
18526;SDS011;9393;42.158;24.748;2023-02-22T13:38:12;4.18;;;1.38;;
18526;SDS011;9393;42.158;24.748;2023-02-22T13:41:42;5.22;;;1.40;;
18526;SDS011;9393;42.158;24.748;2023-02-22T13:49:07;2.67;;;1.42;;
18526;SDS011;9393;42.158;24.748;2023-02-22T13:52:36;2.30;;;1.27;;
18526;SDS011;9393;42.158;24.748;2023-02-22T13:55:44;4.50;;;1.20;;
18526;SDS011;9393;42.158;24.748;2023-02-22T13:58:54;1.73;;;1.50;;
18526;SDS011;9393;42.158;24.748;2023-02-22T14:02:02;2.28;;;1.42;;
18526;SDS011;9393;42.158;24.748;2023-02-22T14:08:43;2.97;;;1.65;;
18526;SDS011;9393;42.158;24.748;2023-02-22T14:11:48;3.53;;;1.20;;
18526;SDS011;9393;42.158;24.748;2023-02-22T14:18:33;2.42;;;1.50;;
18526;SDS011;9393;42.158;24.748;2023-02-22T14:21:54;4.07;;;1.25;;
18526;SDS011;9393;42.158;24.748;2023-02-22T14:25:04;1.80;;;1.40;;
18526;SDS011;9393;42.158;24.748;2023-02-22T14:31:54;2.47;;;1.63;;
18526;SDS011;9393;42.158;24.748;2023-02-22T14:35:03;2.25;;;1.20;;
18526;SDS011;9393;42.158;24.748;2023-02-22T14:38:21;2.38;;;1.73;;
18526;SDS011;9393;42.158;24.748;2023-02-22T14:41:28;9.10;;;2.30;;
18526;SDS011;9393;42.158;24.748;2023-02-22T14:44:35;3.47;;;1.73;;
18526;SDS011;9393;42.158;24.748;2023-02-22T14:47:42;3.00;;;1.70;;
18526;SDS011;9393;42.158;24.748;2023-02-22T14:50:52;6.97;;;2.10;;
18526;SDS011;9393;42.158;24.748;2023-02-22T14:54:08;6.53;;;2.30;;
18526;SDS011;9393;42.158;24.748;2023-02-22T14:57:20;3.33;;;2.13;;
18526;SDS011;9393;42.158;24.748;2023-02-22T15:00:36;3.63;;;1.83;;
18526;SDS011;9393;42.158;24.748;2023-02-22T15:03:42;3.95;;;1.63;;
18526;SDS011;9393;42.158;24.748;2023-02-22T15:06:49;3.10;;;1.30;;
18526;SDS011;9393;42.158;24.748;2023-02-22T15:10:06;4.22;;;1.60;;
18526;SDS011;9393;42.158;24.748;2023-02-22T15:13:23;3.20;;;1.60;;
18526;SDS011;9393;42.158;24.748;2023-02-22T15:16:32;4.22;;;2.20;;
18526;SDS011;9393;42.158;24.748;2023-02-22T15:19:37;6.82;;;2.00;;
18526;SDS011;9393;42.158;24.748;2023-02-22T15:22:43;5.07;;;2.00;;
18526;SDS011;9393;42.158;24.748;2023-02-22T15:25:48;8.10;;;2.00;;
18526;SDS011;9393;42.158;24.748;2023-02-22T15:28:55;3.95;;;2.10;;
18526;SDS011;9393;42.158;24.748;2023-02-22T15:32:00;4.20;;;2.10;;
18526;SDS011;9393;42.158;24.748;2023-02-22T15:35:10;6.28;;;2.17;;
18526;SDS011;9393;42.158;24.748;2023-02-22T15:38:19;8.18;;;1.92;;
18526;SDS011;9393;42.158;24.748;2023-02-22T15:41:30;6.70;;;2.40;;
18526;SDS011;9393;42.158;24.748;2023-02-22T15:44:37;7.87;;;3.27;;
18526;SDS011;9393;42.158;24.748;2023-02-22T15:47:43;7.68;;;3.53;;
18526;SDS011;9393;42.158;24.748;2023-02-22T15:51:00;6.27;;;2.87;;
18526;SDS011;9393;42.158;24.748;2023-02-22T15:54:08;9.10;;;3.10;;
18526;SDS011;9393;42.158;24.748;2023-02-22T15:57:27;7.97;;;2.80;;
18526;SDS011;9393;42.158;24.748;2023-02-22T16:00:33;4.70;;;3.00;;
18526;SDS011;9393;42.158;24.748;2023-02-22T16:03:39;13.97;;;3.90;;
18526;SDS011;9393;42.158;24.748;2023-02-22T16:06:49;11.30;;;4.10;;
18526;SDS011;9393;42.158;24.748;2023-02-22T16:09:55;8.87;;;3.80;;
18526;SDS011;9393;42.158;24.748;2023-02-22T16:13:05;6.50;;;3.60;;
18526;SDS011;9393;42.158;24.748;2023-02-22T16:16:29;10.87;;;4.90;;
18526;SDS011;9393;42.158;24.748;2023-02-22T16:19:34;10.77;;;4.77;;
18526;SDS011;9393;42.158;24.748;2023-02-22T16:22:43;12.50;;;4.73;;
18526;SDS011;9393;42.158;24.748;2023-02-22T16:26:00;12.10;;;4.83;;
18526;SDS011;9393;42.158;24.748;2023-02-22T16:29:07;9.57;;;4.20;;
18526;SDS011;9393;42.158;24.748;2023-02-22T16:32:13;9.07;;;4.47;;
18526;SDS011;9393;42.158;24.748;2023-02-22T16:35:17;11.37;;;4.73;;
18526;SDS011;9393;42.158;24.748;2023-02-22T16:38:21;11.20;;;5.43;;
18526;SDS011;9393;42.158;24.748;2023-02-22T16:41:28;13.93;;;5.93;;
18526;SDS011;9393;42.158;24.748;2023-02-22T16:44:33;13.80;;;6.23;;
18526;SDS011;9393;42.158;24.748;2023-02-22T16:47:39;10.23;;;4.70;;
18526;SDS011;9393;42.158;24.748;2023-02-22T16:50:43;14.93;;;5.37;;
18526;SDS011;9393;42.158;24.748;2023-02-22T16:53:46;17.97;;;5.83;;
18526;SDS011;9393;42.158;24.748;2023-02-22T16:56:51;12.47;;;5.20;;
18526;SDS011;9393;42.158;24.748;2023-02-22T16:59:56;15.20;;;5.93;;
18526;SDS011;9393;42.158;24.748;2023-02-22T17:03:03;15.27;;;6.70;;
18526;SDS011;9393;42.158;24.748;2023-02-22T17:06:07;16.00;;;6.93;;
18526;SDS011;9393;42.158;24.748;2023-02-22T17:09:12;18.20;;;6.07;;
18526;SDS011;9393;42.158;24.748;2023-02-22T17:12:17;19.37;;;6.30;;
18526;SDS011;9393;42.158;24.748;2023-02-22T17:15:22;15.33;;;6.83;;
18526;SDS011;9393;42.158;24.748;2023-02-22T17:18:29;18.27;;;6.13;;
18526;SDS011;9393;42.158;24.748;2023-02-22T17:21:35;11.03;;;5.57;;
18526;SDS011;9393;42.158;24.748;2023-02-22T17:24:38;12.17;;;6.00;;
18526;SDS011;9393;42.158;24.748;2023-02-22T17:27:42;14.03;;;6.47;;
18526;SDS011;9393;42.158;24.748;2023-02-22T17:30:46;11.67;;;6.73;;
18526;SDS011;9393;42.158;24.748;2023-02-22T17:33:52;15.90;;;6.87;;
18526;SDS011;9393;42.158;24.748;2023-02-22T17:36:58;14.13;;;6.80;;
18526;SDS011;9393;42.158;24.748;2023-02-22T17:40:02;8.87;;;4.40;;
18526;SDS011;9393;42.158;24.748;2023-02-22T17:43:06;6.70;;;4.30;;
18526;SDS011;9393;42.158;24.748;2023-02-22T17:46:10;29.60;;;15.37;;
18526;SDS011;9393;42.158;24.748;2023-02-22T17:49:16;16.57;;;10.00;;
18526;SDS011;9393;42.158;24.748;2023-02-22T17:52:20;15.23;;;9.93;;
18526;SDS011;9393;42.158;24.748;2023-02-22T17:55:24;13.33;;;8.53;;
18526;SDS011;9393;42.158;24.748;2023-02-22T17:58:28;17.23;;;7.20;;
18526;SDS011;9393;42.158;24.748;2023-02-22T18:01:33;14.90;;;6.57;;
18526;SDS011;9393;42.158;24.748;2023-02-22T18:04:39;13.63;;;7.07;;
18526;SDS011;9393;42.158;24.748;2023-02-22T18:07:43;12.23;;;6.10;;
18526;SDS011;9393;42.158;24.748;2023-02-22T18:10:47;18.00;;;7.77;;
18526;SDS011;9393;42.158;24.748;2023-02-22T18:13:54;11.13;;;7.10;;
18526;SDS011;9393;42.158;24.748;2023-02-22T18:16:59;12.17;;;8.07;;
18526;SDS011;9393;42.158;24.748;2023-02-22T18:20:05;14.03;;;7.83;;
18526;SDS011;9393;42.158;24.748;2023-02-22T18:23:14;11.60;;;7.03;;
18526;SDS011;9393;42.158;24.748;2023-02-22T18:26:20;9.10;;;4.83;;
18526;SDS011;9393;42.158;24.748;2023-02-22T18:29:26;11.03;;;5.40;;
18526;SDS011;9393;42.158;24.748;2023-02-22T18:32:31;11.03;;;5.27;;
18526;SDS011;9393;42.158;24.748;2023-02-22T18:35:36;9.80;;;5.63;;
18526;SDS011;9393;42.158;24.748;2023-02-22T18:38:40;9.73;;;5.63;;
18526;SDS011;9393;42.158;24.748;2023-02-22T18:41:45;7.97;;;5.10;;
18526;SDS011;9393;42.158;24.748;2023-02-22T18:44:50;9.90;;;5.50;;
18526;SDS011;9393;42.158;24.748;2023-02-22T18:47:54;9.47;;;6.17;;
18526;SDS011;9393;42.158;24.748;2023-02-22T18:51:00;10.30;;;7.33;;
18526;SDS011;9393;42.158;24.748;2023-02-22T18:54:04;15.33;;;9.47;;
18526;SDS011;9393;42.158;24.748;2023-02-22T18:57:08;13.93;;;9.07;;
18526;SDS011;9393;42.158;24.748;2023-02-22T19:00:14;13.37;;;7.67;;
18526;SDS011;9393;42.158;24.748;2023-02-22T19:03:19;9.63;;;5.90;;
18526;SDS011;9393;42.158;24.748;2023-02-22T19:06:25;8.17;;;5.13;;
18526;SDS011;9393;42.158;24.748;2023-02-22T19:09:29;6.00;;;4.53;;
18526;SDS011;9393;42.158;24.748;2023-02-22T19:12:33;7.10;;;3.70;;